createdAt,value
2022-12-14T00:00:44.191Z,16.30
2022-12-14T00:03:31.219Z,15.23
2022-12-14T00:06:30.064Z,14.53
2022-12-14T00:09:17.017Z,16.23
2022-12-14T00:12:04.283Z,15.47
2022-12-14T00:14:51.184Z,16.43
2022-12-14T00:17:38.188Z,15.53
2022-12-14T00:20:25.579Z,16.70
2022-12-14T00:23:12.511Z,16.30
2022-12-14T00:25:59.503Z,16.03
2022-12-14T00:28:49.828Z,14.80
2022-12-14T00:31:36.822Z,13.97
2022-12-14T00:34:23.755Z,15.27
2022-12-14T00:37:10.948Z,15.10
2022-12-14T00:39:57.886Z,14.80
2022-12-14T00:42:44.783Z,15.00
2022-12-14T00:45:31.709Z,14.63
2022-12-14T00:48:21.667Z,15.73
2022-12-14T00:51:08.623Z,14.43
2022-12-14T00:53:55.523Z,14.43
2022-12-14T00:56:42.449Z,15.00
2022-12-14T00:59:29.407Z,14.80
2022-12-14T01:02:16.456Z,14.43
2022-12-14T01:05:03.497Z,13.80
2022-12-14T01:07:50.424Z,14.73
2022-12-14T01:10:40.353Z,14.50
2022-12-14T01:13:27.641Z,14.37
2022-12-14T01:16:15.038Z,13.63
2022-12-14T01:19:02.925Z,13.03
2022-12-14T01:21:49.875Z,13.07
2022-12-14T01:24:36.813Z,14.83
2022-12-14T01:27:23.715Z,14.07
2022-12-14T01:30:11.127Z,13.83
2022-12-14T01:32:58.042Z,13.57
2022-12-14T01:35:44.973Z,14.03
2022-12-14T01:38:31.940Z,14.43
2022-12-14T01:41:32.858Z,14.60
2022-12-14T01:44:19.710Z,14.87
2022-12-14T01:47:25.071Z,14.43
2022-12-14T01:50:22.817Z,14.13
2022-12-14T01:53:15.964Z,14.03
2022-12-14T01:56:04.598Z,14.63
2022-12-14T01:58:51.539Z,14.97
2022-12-14T02:01:38.684Z,13.30
2022-12-14T02:04:26.508Z,14.73
2022-12-14T02:07:14.892Z,14.97
2022-12-14T02:10:05.301Z,14.27
2022-12-14T02:13:02.702Z,15.33
2022-12-14T02:15:51.289Z,13.70
2022-12-14T02:18:38.278Z,14.43
2022-12-14T02:22:00.562Z,14.93
2022-12-14T02:25:05.633Z,15.83
2022-12-14T02:28:29.630Z,15.73
2022-12-14T02:31:53.471Z,15.30
2022-12-14T02:35:07.109Z,15.60
2022-12-14T02:38:12.832Z,15.40
2022-12-14T02:41:22.805Z,15.37
2022-12-14T02:44:38.997Z,14.47
2022-12-14T02:47:54.886Z,15.60
2022-12-14T02:51:06.051Z,15.47
2022-12-14T02:54:02.375Z,16.97
2022-12-14T02:56:54.414Z,19.43
2022-12-14T02:59:42.703Z,19.10
2022-12-14T03:02:33.443Z,21.40
2022-12-14T03:05:20.558Z,19.50
2022-12-14T03:08:12.297Z,17.83
2022-12-14T03:11:04.360Z,17.37
2022-12-14T03:14:17.916Z,18.80
2022-12-14T03:17:19.187Z,15.07
2022-12-14T03:20:15.881Z,13.43
2022-12-14T03:23:16.745Z,15.30
2022-12-14T03:26:15.866Z,14.90
2022-12-14T03:29:18.199Z,14.97
2022-12-14T03:32:16.378Z,15.57
2022-12-14T03:35:54.097Z,14.87
2022-12-14T03:38:43.985Z,14.20
2022-12-14T03:41:52.311Z,13.63
2022-12-14T03:44:57.304Z,13.93
2022-12-14T03:48:15.524Z,13.40
2022-12-14T03:51:06.160Z,13.90
2022-12-14T03:54:26.386Z,13.43
2022-12-14T03:57:20.449Z,13.53
2022-12-14T04:00:13.925Z,12.77
2022-12-14T04:03:31.114Z,14.20
2022-12-14T04:06:23.791Z,14.20
2022-12-14T04:09:42.649Z,16.03
2022-12-14T04:12:56.003Z,13.63
2022-12-14T04:16:04.076Z,12.73
2022-12-14T04:18:59.735Z,14.47
2022-12-14T04:22:10.367Z,14.73
2022-12-14T04:25:20.216Z,14.00
2022-12-14T04:29:06.882Z,12.67
2022-12-14T04:32:02.682Z,13.50
2022-12-14T04:34:58.085Z,15.20
2022-12-14T04:38:03.300Z,14.57
2022-12-14T04:40:54.346Z,14.10
2022-12-14T04:43:43.975Z,13.80
2022-12-14T04:46:38.943Z,13.20
2022-12-14T04:49:39.653Z,13.93
2022-12-14T04:52:34.417Z,13.50
2022-12-14T04:55:29.993Z,12.77
2022-12-14T04:58:22.784Z,13.17
2022-12-14T05:01:32.905Z,14.03
2022-12-14T05:05:00.652Z,13.87
2022-12-14T05:07:50.697Z,13.40
2022-12-14T05:10:42.713Z,14.60
2022-12-14T05:13:40.698Z,14.03
2022-12-14T05:16:27.675Z,14.93
2022-12-14T05:19:15.881Z,14.60
2022-12-14T05:22:07.178Z,14.57
2022-12-14T05:24:54.151Z,14.03
2022-12-14T05:27:41.316Z,13.17
2022-12-14T05:30:29.468Z,13.73
2022-12-14T05:33:20.972Z,13.87
2022-12-14T05:36:09.758Z,13.83
2022-12-14T05:38:56.655Z,14.30
2022-12-14T05:41:43.842Z,12.97
2022-12-14T05:44:30.774Z,14.33
2022-12-14T05:47:17.683Z,12.83
2022-12-14T05:50:06.002Z,12.70
2022-12-14T05:52:53.160Z,12.30
2022-12-14T05:55:47.334Z,13.43
2022-12-14T05:58:36.513Z,12.43
2022-12-14T06:01:23.781Z,14.57
2022-12-14T06:04:12.472Z,12.93
2022-12-14T06:06:59.408Z,13.90
2022-12-14T06:09:46.359Z,13.97
2022-12-14T06:12:33.257Z,13.00
2022-12-14T06:15:20.447Z,12.70
2022-12-14T06:18:07.364Z,12.70
2022-12-14T06:20:56.068Z,13.27
2022-12-14T06:23:43.234Z,13.67
2022-12-14T06:26:31.912Z,12.97
2022-12-14T06:29:21.049Z,13.20
2022-12-14T06:32:07.964Z,12.13
2022-12-14T06:34:54.899Z,11.90
2022-12-14T06:37:41.921Z,12.27
2022-12-14T06:40:28.818Z,12.07
2022-12-14T06:43:15.808Z,13.13
2022-12-14T06:46:15.082Z,12.87
2022-12-14T06:49:03.970Z,13.53
2022-12-14T06:51:51.030Z,14.83
2022-12-14T06:54:37.920Z,13.80
2022-12-14T06:57:24.814Z,12.27
2022-12-14T07:00:12.146Z,12.50
2022-12-14T07:02:59.225Z,13.07
2022-12-14T07:05:49.074Z,13.30
2022-12-14T07:08:38.096Z,12.83
2022-12-14T07:11:30.193Z,12.77
2022-12-14T07:14:17.516Z,12.63
2022-12-14T07:17:04.596Z,12.53
2022-12-14T07:19:51.628Z,14.07
2022-12-14T07:22:38.941Z,13.43
2022-12-14T07:25:25.878Z,13.27
2022-12-14T07:28:12.831Z,13.53
2022-12-14T07:31:00.574Z,13.10
2022-12-14T07:33:48.182Z,13.10
2022-12-14T07:36:35.106Z,13.90
2022-12-14T07:39:22.560Z,13.73
2022-12-14T07:42:09.682Z,14.13
2022-12-14T07:44:56.649Z,14.93
2022-12-14T07:47:43.586Z,12.77
2022-12-14T07:50:30.491Z,12.63
2022-12-14T07:53:17.568Z,13.67
2022-12-14T07:56:10.701Z,13.43
2022-12-14T07:58:58.995Z,13.40
2022-12-14T08:01:46.117Z,14.27
2022-12-14T08:04:34.607Z,13.17
2022-12-14T08:07:22.132Z,13.70
2022-12-14T08:10:09.529Z,13.87
2022-12-14T08:12:56.885Z,13.60
2022-12-14T08:15:44.284Z,15.33
2022-12-14T08:18:33.162Z,13.27
2022-12-14T08:21:22.040Z,14.47
2022-12-14T08:24:11.300Z,14.63
2022-12-14T08:26:58.875Z,13.13
2022-12-14T08:29:46.200Z,15.27
2022-12-14T08:32:34.624Z,14.10
2022-12-14T08:35:22.005Z,16.57
2022-12-14T08:38:09.326Z,16.90
2022-12-14T08:40:56.668Z,15.57
2022-12-14T08:43:44.020Z,22.37
2022-12-14T08:46:32.216Z,14.27
2022-12-14T08:49:19.696Z,14.77
2022-12-14T08:52:07.057Z,15.90
2022-12-14T08:54:54.485Z,14.83
2022-12-14T08:57:41.854Z,13.40
2022-12-14T09:00:29.203Z,15.47
2022-12-14T09:03:16.712Z,22.87
2022-12-14T09:06:04.863Z,24.50
2022-12-14T09:08:52.282Z,20.40
2022-12-14T09:11:39.851Z,23.33
2022-12-14T09:14:27.172Z,16.30
2022-12-14T09:17:14.704Z,17.20
2022-12-14T09:20:02.066Z,14.37
2022-12-14T09:22:52.024Z,13.30
2022-12-14T09:25:39.440Z,12.33
2022-12-14T09:28:27.483Z,11.43
2022-12-14T09:31:16.529Z,11.60
2022-12-14T09:34:03.920Z,11.70
2022-12-14T09:36:52.322Z,12.87
2022-12-14T09:39:39.681Z,11.63
2022-12-14T09:42:50.488Z,12.27
2022-12-14T09:45:45.221Z,12.23
2022-12-14T09:48:32.851Z,12.47
2022-12-14T09:51:21.819Z,11.97
2022-12-14T09:54:13.215Z,13.13
2022-12-14T09:57:04.840Z,13.30
2022-12-14T09:59:54.394Z,12.80
2022-12-14T10:03:06.358Z,11.83
2022-12-14T10:06:13.061Z,11.40
2022-12-14T10:09:07.997Z,11.63
2022-12-14T10:12:01.853Z,11.80
2022-12-14T10:14:49.835Z,11.70
2022-12-14T10:17:37.186Z,11.40
2022-12-14T10:20:34.122Z,12.63
2022-12-14T10:23:23.334Z,11.97
2022-12-14T10:26:15.529Z,12.10
2022-12-14T10:29:05.461Z,11.70
2022-12-14T10:31:59.876Z,11.80
2022-12-14T10:34:47.744Z,12.33
2022-12-14T10:37:39.986Z,11.93
2022-12-14T11:35:20.847Z,12.07
2022-12-14T11:38:15.265Z,11.47
2022-12-14T11:41:11.111Z,12.90
2022-12-14T11:44:14.641Z,13.50
2022-12-14T11:47:03.532Z,11.43
2022-12-14T11:49:54.801Z,13.10
2022-12-14T11:52:43.031Z,13.17
2022-12-14T11:55:30.619Z,12.80
2022-12-14T11:58:21.018Z,11.63
2022-12-14T12:01:19.398Z,11.33
2022-12-14T12:04:13.335Z,11.80
2022-12-14T12:07:12.029Z,12.20
2022-12-14T12:10:07.786Z,12.17
2022-12-14T12:12:58.141Z,11.37
2022-12-14T12:15:50.532Z,11.30
2022-12-14T12:18:46.275Z,11.17
2022-12-14T12:21:36.484Z,11.00
2022-12-14T12:24:25.900Z,9.83
2022-12-14T12:27:14.517Z,11.10
2022-12-14T12:30:15.971Z,10.47
2022-12-14T12:33:09.853Z,10.60
2022-12-14T12:35:59.437Z,10.83
2022-12-14T12:38:50.211Z,10.77
2022-12-14T12:42:02.053Z,11.67
2022-12-14T12:45:00.288Z,12.27
2022-12-14T12:47:54.070Z,11.17
2022-12-14T12:50:44.381Z,11.00
2022-12-14T12:53:45.788Z,11.60
2022-12-14T12:56:33.101Z,10.60
2022-12-14T12:59:24.222Z,10.60
2022-12-14T13:02:17.996Z,11.27
2022-12-14T13:05:37.279Z,11.53
2022-12-14T13:08:34.011Z,11.20
2022-12-14T13:11:28.348Z,11.20
2022-12-14T13:14:34.288Z,10.40
2022-12-14T13:17:27.683Z,10.80
2022-12-14T13:20:19.727Z,10.77
2022-12-14T13:23:43.129Z,11.50
2022-12-14T13:26:57.092Z,10.57
2022-12-14T13:30:03.947Z,11.37
2022-12-14T13:32:54.103Z,9.93
2022-12-14T13:36:00.036Z,11.17
2022-12-14T13:39:06.264Z,11.60
2022-12-14T13:42:16.080Z,10.90
2022-12-14T13:45:05.755Z,11.37
2022-12-14T13:47:55.250Z,10.83
2022-12-14T13:50:52.887Z,11.07
2022-12-14T13:53:50.122Z,14.00
2022-12-14T13:56:40.010Z,11.47
2022-12-14T13:59:29.883Z,11.37
2022-12-14T14:02:32.611Z,10.53
2022-12-14T14:05:22.841Z,12.13
2022-12-14T14:08:33.328Z,11.53
2022-12-14T14:11:41.707Z,11.57
2022-12-14T14:14:36.983Z,10.83
2022-12-14T14:17:25.763Z,11.27
2022-12-14T14:20:34.401Z,10.90
2022-12-14T14:23:24.712Z,11.77
2022-12-14T14:26:31.284Z,11.90
2022-12-14T14:29:29.340Z,10.90
2022-12-14T14:32:35.623Z,10.67
2022-12-14T14:35:23.821Z,11.33
2022-12-14T14:38:24.038Z,10.83
2022-12-14T14:41:17.819Z,11.43
2022-12-14T14:44:07.113Z,11.10
2022-12-14T14:46:54.595Z,11.10
2022-12-14T14:49:43.501Z,11.17
2022-12-14T14:52:40.556Z,11.37
2022-12-14T14:58:40.217Z,11.43
2022-12-14T15:01:29.279Z,15.60
2022-12-14T15:04:23.446Z,22.30
2022-12-14T15:07:16.034Z,26.10
2022-12-14T15:10:20.680Z,18.50
2022-12-14T15:13:17.621Z,12.47
2022-12-14T15:16:05.149Z,13.50
2022-12-14T15:18:52.591Z,11.90
2022-12-14T15:21:40.147Z,12.17
2022-12-14T15:24:27.895Z,12.70
2022-12-14T15:27:23.441Z,12.00
2022-12-14T15:30:13.812Z,14.33
2022-12-14T15:33:08.446Z,17.43
2022-12-14T15:36:02.333Z,15.53
2022-12-14T15:38:53.892Z,14.50
2022-12-14T15:41:41.214Z,14.90
2022-12-14T15:44:28.582Z,12.60
2022-12-14T15:47:27.128Z,13.03
2022-12-14T15:50:25.817Z,13.20
2022-12-14T15:53:15.166Z,13.53
2022-12-14T15:56:09.946Z,12.00
2022-12-14T15:59:00.485Z,12.13
2022-12-14T16:01:54.373Z,11.40
2022-12-14T16:04:44.159Z,11.57
2022-12-14T16:07:38.702Z,13.20
2022-12-14T16:10:33.789Z,12.67
2022-12-14T16:13:24.563Z,12.60
2022-12-14T16:16:13.701Z,12.87
2022-12-14T16:19:25.367Z,12.77
2022-12-14T16:22:25.691Z,13.33
2022-12-14T16:25:16.959Z,12.27
2022-12-14T16:28:22.468Z,12.13
2022-12-14T16:31:21.248Z,12.03
2022-12-14T16:34:17.283Z,11.87
2022-12-14T16:37:31.719Z,12.80
2022-12-14T16:40:24.999Z,11.90
2022-12-14T16:43:31.469Z,12.63
2022-12-14T16:46:19.423Z,11.47
2022-12-14T16:49:20.550Z,11.50
2022-12-14T16:52:10.942Z,12.33
2022-12-14T16:55:07.712Z,14.67
2022-12-14T16:57:58.480Z,30.17
2022-12-14T17:00:56.269Z,40.90
2022-12-14T17:03:43.761Z,37.93
2022-12-14T17:06:40.387Z,26.77
2022-12-14T17:09:29.605Z,21.93
2022-12-14T17:12:18.313Z,22.20
2022-12-14T17:15:06.333Z,19.40
2022-12-14T17:17:54.535Z,15.93
2022-12-14T17:20:41.897Z,14.83
2022-12-14T17:23:29.923Z,14.67
2022-12-14T17:26:21.844Z,14.33
2022-12-14T17:29:16.867Z,14.13
2022-12-14T17:32:04.254Z,13.07
2022-12-14T17:34:51.620Z,14.07
2022-12-14T17:37:38.961Z,13.83
2022-12-14T17:40:27.007Z,14.87
2022-12-14T17:43:16.068Z,14.33
2022-12-14T17:46:03.580Z,13.70
2022-12-14T17:48:51.056Z,12.43
2022-12-14T17:51:41.802Z,14.37
2022-12-14T17:54:29.346Z,15.00
2022-12-14T17:57:18.101Z,14.00
2022-12-14T18:00:24.197Z,13.70
2022-12-14T18:03:12.926Z,14.20
2022-12-14T18:06:00.618Z,13.60
2022-12-14T18:08:48.830Z,13.03
2022-12-14T18:11:39.242Z,13.77
2022-12-14T18:14:32.534Z,13.60
2022-12-14T18:17:19.976Z,14.00
2022-12-14T18:20:07.635Z,17.52
2022-12-14T18:22:55.340Z,15.37
2022-12-14T18:25:43.993Z,17.10
2022-12-14T18:28:36.582Z,15.23
2022-12-14T18:31:26.846Z,14.57
2022-12-14T18:34:14.417Z,15.00
2022-12-14T18:37:01.808Z,14.80
2022-12-14T18:39:49.552Z,14.87
2022-12-14T18:42:36.915Z,14.03
2022-12-14T18:45:27.572Z,14.13
2022-12-14T18:48:17.039Z,15.43
2022-12-14T18:51:04.501Z,15.20
2022-12-14T18:53:51.931Z,13.43
2022-12-14T18:56:41.191Z,13.73
2022-12-14T18:59:28.519Z,14.43
2022-12-14T19:02:16.021Z,14.33
2022-12-14T19:05:04.336Z,15.53
2022-12-14T19:07:51.766Z,14.60
2022-12-14T19:10:40.504Z,15.30
2022-12-14T19:13:28.186Z,15.67
2022-12-14T19:16:15.781Z,16.20
2022-12-14T19:19:03.154Z,16.57
2022-12-14T19:21:50.518Z,15.70
2022-12-14T19:24:37.852Z,15.53
2022-12-14T19:27:50.844Z,14.77
2022-12-14T19:30:34.512Z,13.87
2022-12-14T19:33:23.311Z,15.23
2022-12-14T19:36:43.876Z,15.37
2022-12-14T19:39:31.877Z,12.97
2022-12-14T19:42:22.136Z,14.10
2022-12-14T19:45:10.281Z,14.30
2022-12-14T19:47:57.636Z,14.50
2022-12-14T19:50:49.363Z,14.60
2022-12-14T19:53:37.624Z,14.63
2022-12-14T19:56:25.016Z,14.67
2022-12-14T19:59:12.359Z,14.80
2022-12-14T20:01:59.890Z,14.47
2022-12-14T20:04:47.277Z,15.60
2022-12-14T20:07:38.751Z,15.20
2022-12-14T20:10:29.430Z,16.63
2022-12-14T20:13:16.763Z,17.53
2022-12-14T20:16:04.622Z,16.97
2022-12-14T20:18:52.397Z,17.20
2022-12-14T20:21:40.050Z,19.33
2022-12-14T20:24:27.466Z,17.83
2022-12-14T20:27:15.750Z,17.03
2022-12-14T20:30:04.294Z,16.97
2022-12-14T20:32:51.666Z,18.70
2022-12-14T20:35:47.080Z,18.20
2022-12-14T20:38:43.102Z,17.67
2022-12-14T20:41:39.253Z,15.97
2022-12-14T20:44:27.596Z,16.83
2022-12-14T20:47:14.949Z,16.10
2022-12-14T20:50:02.526Z,16.10
2022-12-14T20:52:49.954Z,15.93
2022-12-14T20:55:40.501Z,14.73
2022-12-14T20:58:28.538Z,15.00
2022-12-14T21:01:17.839Z,16.70
2022-12-14T21:04:05.878Z,16.50
2022-12-14T21:06:53.610Z,17.00
2022-12-14T21:09:41.650Z,18.27
2022-12-14T21:12:29.299Z,16.47
2022-12-14T21:15:16.939Z,17.83
2022-12-14T21:18:04.375Z,17.73
2022-12-14T21:20:51.761Z,17.03
2022-12-14T21:23:41.781Z,17.00
2022-12-14T21:26:29.169Z,16.87
2022-12-14T21:29:16.762Z,15.80
2022-12-14T21:32:04.412Z,16.00
2022-12-14T21:34:51.976Z,16.60
2022-12-14T21:37:37.257Z,17.10
2022-12-14T21:40:43.255Z,17.30
2022-12-14T21:43:30.932Z,17.87
2022-12-14T21:46:18.634Z,16.23
2022-12-14T21:49:06.657Z,15.77
2022-12-14T21:51:54.843Z,16.30
2022-12-14T21:54:42.602Z,17.87
2022-12-14T21:57:49.632Z,16.97
2022-12-14T22:00:38.292Z,15.70
2022-12-14T22:03:25.833Z,16.90
2022-12-14T22:06:13.168Z,16.23
2022-12-14T22:09:01.821Z,15.93
2022-12-14T22:11:49.213Z,16.90
2022-12-14T22:14:36.866Z,16.80
2022-12-14T22:17:24.266Z,15.20
2022-12-14T22:20:11.958Z,16.33
2022-12-14T22:23:00.631Z,15.07
2022-12-14T22:25:51.008Z,15.40
2022-12-14T22:28:38.350Z,14.70
2022-12-14T22:31:25.842Z,16.30
2022-12-14T22:34:18.900Z,16.80
2022-12-14T22:37:06.286Z,16.83
2022-12-14T22:39:53.644Z,18.23
2022-12-14T22:42:40.998Z,17.93
2022-12-14T22:45:28.341Z,17.53
2022-12-14T22:48:16.685Z,16.23
2022-12-14T22:51:05.565Z,17.17
2022-12-14T22:53:52.929Z,15.23
2022-12-14T22:56:46.401Z,15.10
2022-12-14T22:59:39.607Z,15.40
2022-12-14T23:02:27.346Z,17.00
2022-12-14T23:05:15.031Z,15.10
2022-12-14T23:08:02.367Z,15.70
2022-12-14T23:11:08.645Z,20.50
2022-12-14T23:14:14.738Z,18.03
2022-12-14T23:17:21.078Z,16.17
2022-12-14T23:20:27.261Z,15.83
2022-12-14T23:23:34.040Z,15.43
2022-12-14T23:26:40.302Z,15.57
2022-12-14T23:29:46.705Z,16.40
2022-12-14T23:32:52.582Z,14.13
2022-12-14T23:35:58.714Z,15.03
2022-12-14T23:39:04.839Z,14.53
2022-12-14T23:42:10.683Z,16.10
2022-12-14T23:45:16.673Z,14.07
2022-12-14T23:48:22.698Z,15.57
2022-12-14T23:51:28.954Z,15.07
2022-12-14T23:54:35.510Z,14.83
2022-12-14T23:57:41.963Z,14.03
